createdAt,value
2023-05-09T05:03:24.760Z,96064.00
2023-05-09T05:04:25.669Z,96064.00
2023-05-09T05:05:26.005Z,96058.00
2023-05-09T05:06:25.718Z,96062.00
2023-05-09T05:07:25.740Z,96062.00
2023-05-09T05:08:24.754Z,96062.00
2023-05-09T05:09:25.831Z,96056.00
2023-05-09T05:10:25.846Z,96054.00
2023-05-09T05:11:25.872Z,96056.00
2023-05-09T05:12:25.865Z,96056.00
2023-05-09T05:13:24.973Z,96054.00
2023-05-09T05:14:24.877Z,96052.00
2023-05-09T05:15:25.878Z,96054.00
2023-05-09T05:16:25.811Z,96054.00
2023-05-09T05:17:25.932Z,96052.00
2023-05-09T05:18:24.961Z,96054.00
2023-05-09T05:19:25.166Z,96052.00
2023-05-09T05:20:26.104Z,96050.00
2023-05-09T05:21:26.139Z,96050.00
2023-05-09T05:22:25.222Z,96050.00
2023-05-09T05:23:27.282Z,96050.00
2023-05-09T05:24:25.345Z,96050.00
2023-05-09T05:25:26.414Z,96048.00
2023-05-09T05:26:25.421Z,96048.00
2023-05-09T05:27:26.464Z,96046.00
2023-05-09T05:28:25.457Z,96044.00
2023-05-09T05:29:26.492Z,96044.00
2023-05-09T05:30:26.511Z,96042.00
2023-05-09T05:31:26.563Z,96046.00
2023-05-09T05:32:26.628Z,96044.00
2023-05-09T05:33:26.616Z,96044.00
2023-05-09T05:34:26.617Z,96046.00
2023-05-09T05:35:26.822Z,96048.00
2023-05-09T05:36:25.654Z,96048.00
2023-05-09T05:37:26.700Z,96050.00
2023-05-09T05:38:26.694Z,96050.00
2023-05-09T05:39:25.755Z,96056.00
2023-05-09T05:40:25.781Z,96056.00
2023-05-09T05:41:26.810Z,96056.00
2023-05-09T05:42:26.876Z,96056.00
2023-05-09T05:43:25.907Z,96056.00
2023-05-09T05:44:26.940Z,96056.00
2023-05-09T05:45:26.979Z,96056.00
2023-05-09T05:46:27.050Z,96052.00
2023-05-09T05:48:26.082Z,96048.00
2023-05-09T05:49:26.139Z,96046.00
2023-05-09T05:50:27.220Z,96046.00
2023-05-09T05:51:27.357Z,96044.00
2023-05-09T05:52:26.294Z,96044.00
2023-05-09T05:53:26.328Z,96042.00
2023-05-09T05:54:27.392Z,96042.00
2023-05-09T05:55:27.418Z,96042.00
2023-05-09T05:56:26.453Z,96042.00
2023-05-09T05:57:27.500Z,96042.00
2023-05-09T05:58:27.552Z,96042.00
2023-05-09T05:59:26.604Z,96042.00
2023-05-09T06:00:26.629Z,96038.00
2023-05-09T06:01:26.690Z,96036.00
2023-05-09T06:02:27.819Z,96036.00
2023-05-09T06:03:27.860Z,96040.00
2023-05-09T06:04:28.296Z,96038.00
2023-05-09T06:05:27.936Z,96036.00
2023-05-09T06:06:26.991Z,96036.00
2023-05-09T06:07:28.161Z,96036.00
2023-05-09T06:08:27.112Z,96038.00
2023-05-09T06:09:27.166Z,96036.00
2023-05-09T06:10:28.236Z,96036.00
2023-05-09T06:11:27.281Z,96034.00
2023-05-09T06:12:28.117Z,96032.00
2023-05-09T06:13:28.517Z,96034.00
2023-05-09T06:14:28.460Z,96034.00
2023-05-09T06:15:28.527Z,96032.00
2023-05-09T06:16:27.664Z,96032.00
2023-05-09T06:17:27.684Z,96030.00
2023-05-09T06:18:28.697Z,96030.00
2023-05-09T06:19:28.760Z,96030.00
2023-05-09T06:20:28.895Z,96028.00
2023-05-09T06:21:28.890Z,96030.00
2023-05-09T06:22:27.949Z,96026.00
2023-05-09T06:23:28.133Z,96030.00
2023-05-09T06:24:35.680Z,96032.00
2023-05-09T06:25:29.063Z,96028.00
2023-05-09T06:26:29.075Z,96030.00
2023-05-09T06:27:29.032Z,96028.00
2023-05-09T06:28:29.028Z,96026.00
2023-05-09T06:29:28.028Z,96024.00
2023-05-09T06:30:29.068Z,96024.00
2023-05-09T06:31:28.023Z,96024.00
2023-05-09T06:32:28.041Z,96024.00
2023-05-09T06:33:28.995Z,96020.00
2023-05-09T06:34:27.995Z,96019.00
2023-05-09T06:35:28.973Z,96020.00
2023-05-09T06:36:27.962Z,96019.00
2023-05-09T06:37:28.968Z,96019.00
2023-05-09T06:38:28.963Z,96019.00
2023-05-09T06:39:29.084Z,96013.00
2023-05-09T06:40:29.021Z,96017.00
2023-05-09T06:41:28.957Z,96015.00
2023-05-09T06:42:28.929Z,96015.00
2023-05-09T06:43:28.932Z,96019.00
2023-05-09T06:44:28.948Z,96015.00
2023-05-09T06:45:28.969Z,96017.00
2023-05-09T06:46:27.941Z,96013.00
2023-05-09T06:47:27.925Z,96017.00
2023-05-09T06:48:28.868Z,96017.00
2023-05-09T06:49:27.876Z,96013.00
2023-05-09T06:50:30.190Z,96015.00
2023-05-09T06:51:28.878Z,96017.00
2023-05-09T06:52:28.868Z,96015.00
2023-05-09T06:53:28.995Z,96011.00
2023-05-09T06:54:29.309Z,96011.00
2023-05-09T06:55:27.940Z,96009.00
2023-05-09T06:56:28.808Z,96007.00
2023-05-09T06:57:28.865Z,96005.00
2023-05-09T06:58:27.808Z,96003.00
2023-05-09T06:59:27.815Z,96001.00
2023-05-09T07:00:27.798Z,95997.00
2023-05-09T07:01:27.922Z,95999.00
2023-05-09T07:02:28.888Z,95999.00
2023-05-09T07:03:27.779Z,95999.00
2023-05-09T07:04:28.811Z,95999.00
2023-05-09T07:05:28.836Z,95999.00
2023-05-09T07:06:27.768Z,95995.00
2023-05-09T07:07:28.757Z,95999.00
2023-05-09T07:08:27.743Z,95997.00
2023-05-09T07:09:28.784Z,95999.00
2023-05-09T07:10:28.733Z,95991.00
2023-05-09T07:11:28.844Z,95991.00
2023-05-09T07:12:28.715Z,95995.00
2023-05-09T07:13:28.711Z,95991.00
2023-05-09T07:14:27.699Z,95991.00
2023-05-09T07:15:39.678Z,95989.00
2023-05-09T07:16:28.754Z,95989.00
2023-05-09T07:17:27.752Z,95987.00
2023-05-09T07:18:28.744Z,95989.00
2023-05-09T07:19:27.739Z,95987.00
2023-05-09T07:20:28.724Z,95987.00
2023-05-09T07:21:28.705Z,95987.00
2023-05-09T07:22:29.926Z,95983.00
2023-05-09T07:23:28.706Z,95983.00
2023-05-09T07:24:28.732Z,95985.00
2023-05-09T07:25:28.684Z,95983.00
2023-05-09T07:26:28.674Z,95983.00
2023-05-09T07:27:27.718Z,95983.00
2023-05-09T07:28:28.668Z,95979.00
2023-05-09T07:29:28.676Z,95979.00
2023-05-09T07:30:27.664Z,95975.00
2023-05-09T07:31:28.693Z,95975.00
2023-05-09T07:32:28.855Z,95977.00
2023-05-09T07:33:28.636Z,95979.00
2023-05-09T07:34:28.659Z,95975.00
2023-05-09T07:35:27.622Z,95973.00
2023-05-09T07:36:27.611Z,95972.00
2023-05-09T07:37:28.614Z,95975.00
2023-05-09T07:38:27.584Z,95975.00
2023-05-09T07:39:27.614Z,95973.00
2023-05-09T07:40:28.588Z,95973.00
2023-05-09T07:41:28.581Z,95968.00
2023-05-09T07:42:28.565Z,95972.00
2023-05-09T07:43:28.706Z,95968.00
2023-05-09T07:44:28.553Z,95964.00
2023-05-09T07:45:27.572Z,95962.00
2023-05-09T07:46:27.643Z,95958.00
2023-05-09T07:47:27.575Z,95954.00
2023-05-09T07:48:28.523Z,95956.00
2023-05-09T07:49:27.505Z,95956.00
2023-05-09T07:50:28.877Z,95952.00
2023-05-09T07:51:28.494Z,95954.00
2023-05-09T07:52:28.484Z,95952.00
2023-05-09T07:53:28.475Z,95954.00
2023-05-09T07:54:27.466Z,95954.00
2023-05-09T07:55:27.493Z,95946.00
2023-05-09T07:56:28.467Z,95944.00
2023-05-09T07:57:28.499Z,95946.00
2023-05-09T07:58:28.502Z,95948.00
2023-05-09T07:59:28.646Z,95944.00
2023-05-09T08:00:27.528Z,95948.00
2023-05-09T08:01:28.555Z,95946.00
2023-05-09T08:02:27.647Z,95934.00
2023-05-09T08:03:27.650Z,95944.00
2023-05-09T08:04:28.601Z,95944.00
2023-05-09T08:05:28.553Z,95942.00
2023-05-09T08:06:28.540Z,95934.00
2023-05-09T08:07:27.540Z,95928.00
2023-05-09T08:08:28.547Z,95930.00
2023-05-09T08:09:27.544Z,95928.00
2023-05-09T08:10:28.550Z,95925.00
2023-05-09T08:11:27.551Z,95927.00
2023-05-09T08:12:28.553Z,95925.00
2023-05-09T08:13:28.580Z,95923.00
2023-05-09T08:14:27.586Z,95921.00
2023-05-09T08:15:28.710Z,95921.00
2023-05-09T08:16:28.591Z,95921.00
2023-05-09T08:17:27.570Z,95917.00
2023-05-09T08:18:28.548Z,95915.00
2023-05-09T08:19:28.536Z,95915.00
2023-05-09T08:20:28.541Z,95915.00
2023-05-09T08:21:28.553Z,95913.00
2023-05-09T08:22:28.560Z,95911.00
2023-05-09T08:23:28.589Z,95913.00
2023-05-09T08:24:27.608Z,95911.00
2023-05-09T08:25:27.655Z,95907.00
2023-05-09T08:26:27.681Z,95907.00
2023-05-09T08:27:27.720Z,95903.00
2023-05-09T08:28:27.755Z,95903.00
2023-05-09T08:29:28.776Z,95901.00
2023-05-09T08:30:28.817Z,95899.00
2023-05-09T08:31:29.062Z,95899.00
2023-05-09T08:32:27.930Z,95899.00
2023-05-09T08:33:29.005Z,95897.00
2023-05-09T08:34:28.036Z,95895.00
2023-05-09T08:35:29.076Z,95891.00
2023-05-09T08:36:29.102Z,95891.00
2023-05-09T08:37:28.133Z,95887.00
2023-05-09T08:38:29.186Z,95887.00
2023-05-09T08:39:29.246Z,95885.00
2023-05-09T08:40:29.286Z,95883.00
2023-05-09T08:41:29.317Z,95885.00
2023-05-09T08:42:28.359Z,95883.00
2023-05-09T08:43:28.375Z,95883.00
2023-05-09T08:44:28.383Z,95880.00
2023-05-09T08:45:29.867Z,95876.00
2023-05-09T08:46:28.421Z,95874.00
2023-05-09T08:47:29.608Z,95874.00
2023-05-09T08:48:29.424Z,95874.00
2023-05-09T08:49:28.420Z,95870.00
2023-05-09T08:50:28.453Z,95868.00
2023-05-09T08:51:28.435Z,95870.00
2023-05-09T08:52:28.437Z,95866.00
2023-05-09T08:53:28.439Z,95864.00
2023-05-09T08:54:28.411Z,95864.00
2023-05-09T08:55:29.867Z,95862.00
2023-05-09T08:56:29.413Z,95864.00
2023-05-09T08:57:29.454Z,95864.00
2023-05-09T08:58:29.411Z,95862.00
2023-05-09T08:59:28.413Z,95862.00
2023-05-09T09:00:29.426Z,95860.00
2023-05-09T09:01:29.472Z,95856.00
2023-05-09T09:02:29.502Z,95856.00
2023-05-09T09:03:29.625Z,95848.00
2023-05-09T09:04:28.446Z,95846.00
2023-05-09T09:06:29.468Z,95840.00
2023-05-09T09:07:31.158Z,95838.00
2023-05-09T09:08:29.453Z,95836.00
2023-05-09T09:09:28.448Z,95836.00
2023-05-09T09:10:28.446Z,95833.00
2023-05-09T09:11:28.429Z,95833.00
2023-05-09T09:12:28.420Z,95834.00
2023-05-09T09:13:28.609Z,95834.00
2023-05-09T09:14:29.403Z,95833.00
2023-05-09T09:15:29.406Z,95829.00
2023-05-09T09:16:28.475Z,95829.00
2023-05-09T09:17:29.444Z,95825.00
2023-05-09T09:18:29.495Z,95825.00
2023-05-09T09:19:29.501Z,95821.00
2023-05-09T09:20:28.371Z,95821.00
2023-05-09T09:21:29.362Z,95813.00
2023-05-09T09:22:29.349Z,95813.00
2023-05-09T09:23:29.346Z,95811.00
2023-05-09T09:24:29.342Z,95807.00
2023-05-09T09:25:28.347Z,95803.00
2023-05-09T09:26:29.333Z,95801.00
2023-05-09T09:27:29.310Z,95797.00
2023-05-09T09:28:28.311Z,95795.00
2023-05-09T09:29:28.309Z,95795.00
2023-05-09T09:30:28.306Z,95789.00
2023-05-09T09:31:28.332Z,95793.00
2023-05-09T09:32:28.329Z,95789.00
2023-05-09T09:33:28.294Z,95789.00
2023-05-09T09:34:29.307Z,95789.00
2023-05-09T09:35:29.399Z,95784.00
2023-05-09T09:36:28.265Z,95784.00
2023-05-09T09:37:29.251Z,95784.00
2023-05-09T09:38:29.236Z,95784.00
2023-05-09T09:39:29.242Z,95780.00
2023-05-09T09:40:29.242Z,95778.00
2023-05-09T09:41:29.221Z,95778.00
2023-05-09T09:42:28.213Z,95776.00
2023-05-09T09:43:29.246Z,95776.00
2023-05-09T09:44:29.207Z,95774.00
2023-05-09T09:45:28.210Z,95768.00
2023-05-09T09:46:28.238Z,95768.00
2023-05-09T09:47:29.215Z,95768.00
2023-05-09T09:48:28.195Z,95764.00
2023-05-09T09:49:28.166Z,95764.00
2023-05-09T09:50:29.393Z,95760.00
2023-05-09T09:51:29.282Z,95762.00
2023-05-09T09:52:28.159Z,95758.00
2023-05-09T09:53:28.149Z,95754.00
2023-05-09T09:54:28.165Z,95754.00
2023-05-09T09:55:29.148Z,95752.00
2023-05-09T09:56:29.116Z,95748.00
2023-05-09T09:57:29.120Z,95746.00
2023-05-09T09:58:29.116Z,95746.00
2023-05-09T09:59:29.094Z,95740.00
2023-05-09T10:00:29.133Z,95739.00
2023-05-09T10:01:28.170Z,95739.00
2023-05-09T10:02:29.104Z,95737.00
2023-05-09T10:03:29.122Z,95733.00
2023-05-09T10:04:29.064Z,95733.00
2023-05-09T10:05:28.063Z,95731.00
2023-05-09T10:06:29.060Z,95729.00
2023-05-09T10:07:29.171Z,95725.00
2023-05-09T10:08:28.040Z,95725.00
2023-05-09T10:09:29.068Z,95721.00
2023-05-09T10:10:29.036Z,95721.00
2023-05-09T10:11:28.052Z,95715.00
2023-05-09T10:12:28.024Z,95713.00
2023-05-09T10:13:28.054Z,95711.00
2023-05-09T10:14:27.992Z,95711.00
2023-05-09T10:15:30.059Z,95711.00
2023-05-09T10:16:42.589Z,95707.00
2023-05-09T10:17:29.091Z,95705.00
2023-05-09T10:18:28.108Z,95703.00
2023-05-09T10:19:28.968Z,95701.00
2023-05-09T10:20:28.958Z,95701.00
2023-05-09T10:21:28.953Z,95701.00
2023-05-09T10:22:28.941Z,95697.00
2023-05-09T10:23:29.070Z,95697.00
2023-05-09T10:24:28.929Z,95693.00
2023-05-09T10:25:28.920Z,95695.00
2023-05-09T10:26:27.942Z,95695.00
2023-05-09T10:27:28.904Z,95695.00
2023-05-09T10:28:28.896Z,95695.00
2023-05-09T10:29:27.893Z,95692.00
2023-05-09T10:30:30.217Z,95692.00
2023-05-09T10:31:27.903Z,95686.00
2023-05-09T10:32:28.885Z,95678.00
2023-05-09T10:33:28.855Z,95678.00
2023-05-09T10:34:28.856Z,95676.00
2023-05-09T10:35:27.856Z,95676.00
2023-05-09T10:36:28.831Z,95674.00
2023-05-09T10:37:28.834Z,95670.00
2023-05-09T10:38:28.835Z,95668.00
2023-05-09T10:39:27.983Z,95664.00
2023-05-09T10:40:27.833Z,95664.00
2023-05-09T10:41:27.904Z,95664.00
2023-05-09T10:42:28.853Z,95662.00
2023-05-09T10:43:27.848Z,95662.00
2023-05-09T10:44:28.836Z,95658.00
2023-05-09T10:45:28.835Z,95656.00
2023-05-09T10:46:27.984Z,95654.00
2023-05-09T10:47:28.856Z,95650.00
2023-05-09T10:48:28.840Z,95648.00
2023-05-09T10:49:28.856Z,95646.00
2023-05-09T10:50:27.885Z,95644.00
2023-05-09T10:51:27.926Z,95646.00
2023-05-09T10:52:27.979Z,95646.00
2023-05-09T10:53:28.028Z,95644.00
2023-05-09T10:54:30.925Z,95640.00
2023-05-09T10:55:29.220Z,95639.00
2023-05-09T10:56:29.083Z,95639.00
2023-05-09T10:57:28.074Z,95637.00
2023-05-09T10:58:28.042Z,95633.00
2023-05-09T10:59:29.040Z,95631.00
2023-05-09T11:00:29.027Z,95627.00
2023-05-09T11:01:29.060Z,95629.00
2023-05-09T11:02:29.134Z,95625.00
2023-05-09T11:03:29.097Z,95621.00
2023-05-09T11:04:28.010Z,95619.00
2023-05-09T11:05:29.009Z,95617.00
2023-05-09T11:06:28.012Z,95615.00
2023-05-09T11:07:29.001Z,95613.00
2023-05-09T11:08:27.987Z,95611.00
2023-05-09T11:09:28.968Z,95609.00
2023-05-09T11:10:28.971Z,95607.00
2023-05-09T11:11:29.120Z,95607.00
2023-05-09T11:12:28.968Z,95605.00
2023-05-09T11:13:29.001Z,95601.00
2023-05-09T11:14:27.954Z,95603.00
2023-05-09T11:15:28.947Z,95599.00
2023-05-09T11:16:27.972Z,95599.00
2023-05-09T11:17:27.952Z,95599.00
2023-05-09T11:18:27.918Z,95593.00
2023-05-09T11:19:27.909Z,95593.00
2023-05-09T11:20:28.925Z,95592.00
2023-05-09T11:21:27.929Z,95592.00
2023-05-09T11:22:28.994Z,95588.00
2023-05-09T11:23:29.000Z,95586.00
2023-05-09T11:24:29.049Z,95586.00
2023-05-09T11:25:28.085Z,95582.00
2023-05-09T11:26:28.125Z,95576.00
2023-05-09T11:27:29.303Z,95572.00
2023-05-09T11:28:29.218Z,95570.00
2023-05-09T11:29:29.271Z,95566.00
2023-05-09T11:30:28.298Z,95566.00
2023-05-09T11:31:29.378Z,95564.00
2023-05-09T11:32:28.437Z,95562.00
2023-05-09T11:33:28.458Z,95560.00
2023-05-09T11:34:29.496Z,95560.00
2023-05-09T11:35:29.566Z,95558.00
2023-05-09T11:36:29.924Z,95556.00
2023-05-09T11:37:29.588Z,95552.00
2023-05-09T11:38:28.578Z,95548.00
2023-05-09T11:39:29.575Z,95545.00
2023-05-09T11:40:28.570Z,95541.00
2023-05-09T11:41:29.929Z,95541.00
2023-05-09T11:42:28.557Z,95539.00
2023-05-09T11:43:29.685Z,95537.00
2023-05-09T11:44:28.542Z,95535.00
2023-05-09T11:45:28.573Z,95531.00
2023-05-09T11:46:29.666Z,95533.00
2023-05-09T11:47:29.604Z,95529.00
2023-05-09T11:48:28.582Z,95523.00
2023-05-09T11:49:28.624Z,95521.00
2023-05-09T11:50:29.594Z,95523.00
2023-05-09T11:51:28.589Z,95519.00
2023-05-09T11:52:28.589Z,95509.00
2023-05-09T11:53:29.653Z,95511.00
2023-05-09T11:54:29.575Z,95513.00
2023-05-09T11:55:29.596Z,95507.00
2023-05-09T11:56:28.612Z,95507.00
2023-05-09T11:57:29.724Z,95503.00
2023-05-09T11:58:28.606Z,95499.00
2023-05-09T11:59:29.717Z,95499.00
2023-05-09T12:00:28.603Z,95498.00
2023-05-09T12:01:28.613Z,95496.00
2023-05-09T12:02:29.763Z,95496.00
2023-05-09T12:03:29.761Z,95492.00
2023-05-09T12:04:29.646Z,95492.00
2023-05-09T12:05:28.628Z,95490.00
2023-05-09T12:06:28.627Z,95486.00
2023-05-09T12:07:29.608Z,95484.00
2023-05-09T12:08:29.663Z,95482.00
2023-05-09T12:09:28.625Z,95482.00
2023-05-09T12:10:29.647Z,95482.00
2023-05-09T12:11:29.648Z,95480.00
2023-05-09T12:12:28.614Z,95478.00
2023-05-09T12:13:29.745Z,95480.00
2023-05-09T12:14:29.652Z,95478.00
2023-05-09T12:15:28.663Z,95476.00
2023-05-09T12:16:29.736Z,95470.00
2023-05-09T12:17:29.657Z,95472.00
2023-05-09T12:18:28.649Z,95470.00
2023-05-09T12:19:28.716Z,95468.00
2023-05-09T12:20:29.673Z,95468.00
2023-05-09T12:21:29.670Z,95466.00
2023-05-09T12:22:28.687Z,95466.00
2023-05-09T12:23:28.723Z,95462.00
2023-05-09T12:24:29.744Z,95460.00
2023-05-09T12:25:29.743Z,95460.00
2023-05-09T12:26:28.732Z,95454.00
2023-05-09T12:27:28.840Z,95458.00
2023-05-09T12:28:29.751Z,95460.00
2023-05-09T12:29:29.796Z,95456.00
2023-05-09T12:30:28.802Z,95452.00
2023-05-09T12:31:28.992Z,95452.00
2023-05-09T12:32:28.888Z,95451.00
2023-05-09T12:33:28.832Z,95449.00
2023-05-09T12:34:28.827Z,95445.00
2023-05-09T12:35:29.827Z,95443.00
2023-05-09T12:36:29.864Z,95443.00
2023-05-09T12:37:28.845Z,95443.00
2023-05-09T12:38:29.840Z,95441.00
2023-05-09T12:39:29.841Z,95439.00
2023-05-09T12:40:28.840Z,95441.00
2023-05-09T12:41:38.952Z,95441.00
2023-05-09T12:42:29.837Z,95435.00
2023-05-09T12:43:29.810Z,95437.00
2023-05-09T12:44:30.363Z,95431.00
2023-05-09T12:45:29.798Z,95419.00
2023-05-09T12:46:29.811Z,95419.00
2023-05-09T12:47:29.948Z,95419.00
2023-05-09T12:48:29.799Z,95413.00
2023-05-09T12:49:28.786Z,95413.00
2023-05-09T12:50:28.774Z,95411.00
2023-05-09T12:51:29.781Z,95411.00
2023-05-09T12:52:28.756Z,95411.00
2023-05-09T12:53:29.752Z,95409.00
2023-05-09T12:54:29.752Z,95406.00
2023-05-09T12:55:29.757Z,95400.00
2023-05-09T12:56:29.738Z,95400.00
2023-05-09T12:57:31.519Z,95394.00
2023-05-09T12:58:28.731Z,95396.00
2023-05-09T12:59:28.698Z,95392.00
2023-05-09T13:00:29.706Z,95394.00
2023-05-09T13:01:29.878Z,95390.00
2023-05-09T13:02:29.713Z,95384.00
2023-05-09T13:03:28.865Z,95392.00
2023-05-09T13:04:29.758Z,95386.00
2023-05-09T13:05:29.693Z,95384.00
2023-05-09T13:06:28.689Z,95378.00
2023-05-09T13:07:29.654Z,95378.00
2023-05-09T13:08:29.652Z,95374.00
2023-05-09T13:09:28.656Z,95372.00
2023-05-09T13:10:28.651Z,95372.00
2023-05-09T13:11:29.644Z,95368.00
2023-05-09T13:12:29.622Z,95370.00
2023-05-09T13:13:28.672Z,95364.00
2023-05-09T13:14:29.648Z,95360.00
2023-05-09T13:15:29.598Z,95360.00
2023-05-09T13:16:29.617Z,95355.00
2023-05-09T13:17:28.644Z,95355.00
2023-05-09T13:18:29.581Z,95353.00
2023-05-09T13:19:28.694Z,95353.00
2023-05-09T13:20:29.571Z,95351.00
2023-05-09T13:21:28.570Z,95349.00
2023-05-09T13:22:29.549Z,95347.00
2023-05-09T13:23:29.538Z,95347.00
2023-05-09T13:24:28.526Z,95347.00
2023-05-09T13:25:29.553Z,95347.00
2023-05-09T13:26:28.541Z,95343.00
2023-05-09T13:27:28.529Z,95337.00
2023-05-09T13:28:29.496Z,95335.00
2023-05-09T13:29:29.501Z,95331.00
2023-05-09T13:30:29.523Z,95329.00
2023-05-09T13:31:29.497Z,95327.00
2023-05-09T13:32:29.500Z,95325.00
2023-05-09T13:33:29.554Z,95323.00
2023-05-09T13:34:29.466Z,95319.00
2023-05-09T13:35:28.588Z,95317.00
2023-05-09T13:36:29.452Z,95315.00
2023-05-09T13:37:29.446Z,95319.00
2023-05-09T13:38:29.450Z,95312.00
2023-05-09T13:39:29.435Z,95312.00
2023-05-09T13:40:28.434Z,95310.00
2023-05-09T13:41:28.425Z,95308.00
2023-05-09T13:42:28.415Z,95308.00
2023-05-09T13:43:29.401Z,95302.00
2023-05-09T13:44:29.404Z,95304.00
2023-05-09T13:45:29.388Z,95308.00
2023-05-09T13:46:29.531Z,95304.00
2023-05-09T13:47:29.408Z,95302.00
2023-05-09T13:48:29.371Z,95300.00
2023-05-09T13:49:28.987Z,95296.00
2023-05-09T13:50:29.357Z,95296.00
2023-05-09T13:51:29.512Z,95298.00
2023-05-09T13:52:28.373Z,95290.00
2023-05-09T13:53:29.360Z,95296.00
2023-05-09T13:54:28.381Z,95292.00
2023-05-09T13:55:29.453Z,95294.00
2023-05-09T13:56:28.499Z,95290.00
2023-05-09T13:57:29.565Z,95288.00
2023-05-09T13:58:28.549Z,95286.00
2023-05-09T13:59:29.558Z,95288.00
2023-05-09T14:00:28.590Z,95284.00
2023-05-09T14:01:28.613Z,95284.00
2023-05-09T14:02:28.588Z,95282.00
2023-05-09T14:03:28.703Z,95284.00
2023-05-09T14:04:29.578Z,95278.00
2023-05-09T14:05:28.556Z,95282.00
2023-05-09T14:06:29.603Z,95278.00
2023-05-09T14:07:29.680Z,95278.00
2023-05-09T14:08:28.554Z,95278.00
2023-05-09T14:09:29.559Z,95276.00
2023-05-09T14:10:29.561Z,95276.00
2023-05-09T14:11:29.554Z,95272.00
2023-05-09T14:12:29.560Z,95272.00
2023-05-09T14:13:28.653Z,95268.00
2023-05-09T14:14:29.547Z,95265.00
2023-05-09T14:15:28.532Z,95263.00
2023-05-09T14:16:28.649Z,95265.00
2023-05-09T14:17:29.595Z,95261.00
2023-05-09T14:18:29.524Z,95259.00
2023-05-09T14:19:29.536Z,95259.00
2023-05-09T14:20:29.555Z,95257.00
2023-05-09T14:21:29.556Z,95255.00
2023-05-09T14:22:28.574Z,95257.00
2023-05-09T14:23:29.721Z,95253.00
2023-05-09T14:24:28.597Z,95249.00
2023-05-09T14:25:28.605Z,95249.00
2023-05-09T14:26:29.643Z,95249.00
2023-05-09T14:27:29.669Z,95247.00
2023-05-09T14:28:28.680Z,95249.00
2023-05-09T14:29:28.728Z,95239.00
2023-05-09T14:30:28.833Z,95239.00
2023-05-09T14:31:29.864Z,95237.00
2023-05-09T14:32:29.863Z,95235.00
2023-05-09T14:33:29.920Z,95235.00
2023-05-09T14:34:29.957Z,95233.00
2023-05-09T14:35:29.063Z,95229.00
2023-05-09T14:36:29.048Z,95227.00
2023-05-09T14:37:30.065Z,95231.00
2023-05-09T14:38:30.112Z,95229.00
2023-05-09T14:39:29.293Z,95225.00
2023-05-09T14:40:30.194Z,95223.00
2023-05-09T14:41:30.258Z,95223.00
2023-05-09T14:42:30.340Z,95223.00
2023-05-09T14:43:30.380Z,95219.00
2023-05-09T14:44:30.425Z,95214.00
2023-05-09T14:45:29.454Z,95216.00
2023-05-09T14:46:29.521Z,95216.00
2023-05-09T14:47:30.546Z,95216.00
2023-05-09T14:48:29.453Z,95214.00
2023-05-09T14:49:29.458Z,95212.00
2023-05-09T14:50:30.513Z,95210.00
2023-05-09T14:51:30.541Z,95212.00
2023-05-09T14:52:29.598Z,95210.00
2023-05-09T14:53:30.645Z,95212.00
2023-05-09T14:54:30.674Z,95208.00
2023-05-09T14:55:29.867Z,95212.00
2023-05-09T14:56:29.739Z,95212.00
2023-05-09T14:57:29.773Z,95208.00
2023-05-09T14:58:29.819Z,95206.00
2023-05-09T14:59:30.832Z,95206.00
2023-05-09T15:00:30.904Z,95202.00
2023-05-09T15:01:30.972Z,95206.00
2023-05-09T15:02:29.987Z,95204.00
2023-05-09T15:03:31.029Z,95198.00
2023-05-09T15:04:30.153Z,95202.00
2023-05-09T15:05:31.127Z,95202.00
2023-05-09T15:06:31.198Z,95200.00
2023-05-09T15:07:30.224Z,95204.00
2023-05-09T15:08:30.291Z,95198.00
2023-05-09T15:09:30.331Z,95200.00
2023-05-09T15:10:31.382Z,95200.00
2023-05-09T15:11:39.925Z,95196.00
2023-05-09T15:12:31.415Z,95196.00
2023-05-09T15:13:31.482Z,95196.00
2023-05-09T15:14:30.391Z,95194.00
2023-05-09T15:15:30.385Z,95194.00
2023-05-09T15:16:30.407Z,95192.00
2023-05-09T15:17:31.378Z,95190.00
2023-05-09T15:18:30.370Z,95188.00
2023-05-09T15:19:31.352Z,95188.00
2023-05-09T15:20:30.351Z,95184.00
2023-05-09T15:21:30.348Z,95186.00
2023-05-09T15:22:31.338Z,95182.00
2023-05-09T15:23:31.384Z,95180.00
2023-05-09T15:24:31.312Z,95176.00
2023-05-09T15:25:31.315Z,95178.00
2023-05-09T15:26:30.347Z,95174.00
2023-05-09T15:27:31.436Z,95176.00
2023-05-09T15:28:30.284Z,95174.00
2023-05-09T15:29:31.272Z,95174.00
